createdAt,value
2019-03-17T00:00:49.195Z,4.92
2019-03-17T00:03:18.010Z,4.62
2019-03-17T00:05:46.876Z,4.42
2019-03-17T00:08:15.765Z,4.62
2019-03-17T00:10:48.345Z,5.67
2019-03-17T00:13:17.873Z,6.08
2019-03-17T00:15:49.498Z,4.05
2019-03-17T00:18:18.489Z,10.18
2019-03-17T00:20:47.383Z,7.92
2019-03-17T00:23:18.690Z,20.17
2019-03-17T00:25:48.544Z,7.92
2019-03-17T00:28:18.292Z,6.05
2019-03-17T00:30:47.241Z,5.10
2019-03-17T00:33:16.133Z,5.97
2019-03-17T00:35:45.023Z,5.37
2019-03-17T00:38:13.820Z,4.00
2019-03-17T00:40:42.698Z,21.90
2019-03-17T00:43:15.172Z,50.10
2019-03-17T00:45:48.261Z,79.67
2019-03-17T00:48:18.063Z,37.63
2019-03-17T00:50:50.864Z,11.83
2019-03-17T00:53:23.930Z,9.93
2019-03-17T00:55:55.294Z,8.43
2019-03-17T00:58:25.065Z,8.88
2019-03-17T01:00:55.012Z,9.53
2019-03-17T01:03:27.343Z,7.10
2019-03-17T01:05:56.276Z,7.17
2019-03-17T01:08:25.112Z,6.25
2019-03-17T01:10:54.983Z,6.70
2019-03-17T01:13:23.867Z,8.10
2019-03-17T01:15:52.758Z,10.55
2019-03-17T01:18:23.495Z,6.45
2019-03-17T01:20:52.286Z,8.53
2019-03-17T01:23:21.270Z,4.00
2019-03-17T01:25:50.262Z,9.75
2019-03-17T01:28:19.256Z,6.87
2019-03-17T01:30:48.145Z,6.83
2019-03-17T01:33:19.597Z,6.97
2019-03-17T01:35:48.589Z,7.25
2019-03-17T01:38:20.056Z,6.67
2019-03-17T01:40:49.854Z,8.20
2019-03-17T01:43:22.640Z,6.97
2019-03-17T01:45:51.527Z,8.65
2019-03-17T01:48:23.492Z,7.65
2019-03-17T01:50:53.506Z,7.80
2019-03-17T01:53:22.495Z,5.53
2019-03-17T01:55:51.382Z,5.83
2019-03-17T01:58:20.375Z,5.25
2019-03-17T02:00:49.367Z,6.72
2019-03-17T02:03:18.273Z,6.47
2019-03-17T02:05:47.149Z,6.22
2019-03-17T02:08:15.955Z,5.65
2019-03-17T02:10:44.826Z,9.68
2019-03-17T02:13:15.780Z,9.03
2019-03-17T02:15:46.641Z,8.53
2019-03-17T02:18:14.669Z,12.75
2019-03-17T02:20:43.559Z,6.22
2019-03-17T02:23:14.917Z,5.85
2019-03-17T02:25:46.262Z,5.47
2019-03-17T02:28:15.180Z,5.95
2019-03-17T02:30:47.314Z,5.58
2019-03-17T02:33:22.608Z,6.05
2019-03-17T02:35:55.742Z,6.72
2019-03-17T02:38:24.441Z,4.05
2019-03-17T02:40:54.341Z,4.65
2019-03-17T02:43:24.459Z,3.90
2019-03-17T02:46:02.625Z,4.83
2019-03-17T02:48:26.865Z,3.85
2019-03-17T02:50:58.401Z,4.42
2019-03-17T02:53:27.291Z,4.70
2019-03-17T02:55:56.188Z,2.95
2019-03-17T02:58:27.157Z,7.05
2019-03-17T03:00:56.520Z,4.67
2019-03-17T03:03:27.972Z,4.17
2019-03-17T03:05:56.859Z,4.30
2019-03-17T03:08:30.488Z,3.52
2019-03-17T03:13:29.268Z,5.60
2019-03-17T03:15:59.079Z,4.90
2019-03-17T03:18:27.971Z,3.50
2019-03-17T03:20:57.883Z,6.62
2019-03-17T03:23:26.773Z,4.87
2019-03-17T03:25:56.599Z,5.17
2019-03-17T03:28:25.572Z,4.30
2019-03-17T03:30:58.017Z,3.20
2019-03-17T03:33:31.713Z,10.25
2019-03-17T03:36:11.072Z,14.05
2019-03-17T03:38:34.955Z,6.65
2019-03-17T03:41:04.166Z,3.55
2019-03-17T03:43:33.354Z,4.08
2019-03-17T03:46:02.241Z,4.42
2019-03-17T03:48:32.156Z,8.40
2019-03-17T03:51:04.630Z,9.85
2019-03-17T03:53:38.465Z,8.10
2019-03-17T03:56:07.688Z,8.15
2019-03-17T03:58:36.642Z,3.45
2019-03-17T04:01:06.511Z,3.83
2019-03-17T04:03:35.434Z,3.77
2019-03-17T04:06:04.318Z,3.02
2019-03-17T04:08:35.870Z,2.05
2019-03-17T04:11:04.760Z,3.75
2019-03-17T04:13:33.571Z,4.60
2019-03-17T04:16:03.475Z,4.55
2019-03-17T04:18:32.359Z,3.27
2019-03-17T04:21:03.811Z,5.60
2019-03-17T04:23:32.694Z,4.65
2019-03-17T04:26:05.680Z,4.67
2019-03-17T04:28:36.411Z,5.15
2019-03-17T04:31:05.200Z,3.20
2019-03-17T04:33:34.191Z,6.35
2019-03-17T04:36:03.005Z,3.87
2019-03-17T04:38:32.074Z,6.67
2019-03-17T04:41:01.885Z,4.60
2019-03-17T04:43:30.776Z,4.00
2019-03-17T04:45:59.663Z,6.70
2019-03-17T04:48:28.556Z,4.80
2019-03-17T04:50:57.548Z,7.67
2019-03-17T04:53:26.440Z,8.13
2019-03-17T04:55:56.352Z,8.70
2019-03-17T04:58:25.342Z,11.55
2019-03-17T05:00:54.233Z,9.73
2019-03-17T05:03:23.125Z,8.55
2019-03-17T05:05:54.573Z,8.53
2019-03-17T05:08:24.794Z,7.37
2019-03-17T05:10:59.941Z,7.67
2019-03-17T05:13:30.855Z,4.62
2019-03-17T05:16:06.431Z,4.83
2019-03-17T05:18:35.410Z,5.78
2019-03-17T05:21:04.296Z,10.58
2019-03-17T05:23:34.214Z,9.20
2019-03-17T05:26:05.865Z,8.98
2019-03-17T05:28:39.688Z,22.40
2019-03-17T05:31:08.561Z,22.67
2019-03-17T05:33:37.454Z,28.32
2019-03-17T05:36:06.339Z,7.33
2019-03-17T05:38:35.139Z,15.88
2019-03-17T05:41:03.929Z,13.13
2019-03-17T05:43:32.807Z,7.28
2019-03-17T05:46:04.422Z,16.62
2019-03-17T05:48:34.287Z,15.00
2019-03-17T05:51:03.161Z,9.50
2019-03-17T05:53:35.022Z,10.72
2019-03-17T05:56:03.915Z,7.90
2019-03-17T05:58:32.803Z,6.80
2019-03-17T06:01:05.802Z,4.67
2019-03-17T06:03:38.056Z,5.60
2019-03-17T06:06:10.372Z,6.97
2019-03-17T06:08:43.145Z,7.80
2019-03-17T06:11:14.597Z,4.62
2019-03-17T06:13:42.939Z,6.72
2019-03-17T06:16:12.951Z,7.25
2019-03-17T06:18:44.608Z,5.92
2019-03-17T06:21:14.424Z,7.45
2019-03-17T06:23:43.306Z,6.85
2019-03-17T06:26:14.733Z,5.97
2019-03-17T06:28:44.681Z,33.83
2019-03-17T06:31:13.563Z,11.93
2019-03-17T06:33:44.865Z,5.78
2019-03-17T06:36:13.800Z,6.17
2019-03-17T06:38:42.893Z,5.08
2019-03-17T06:41:15.573Z,5.67
2019-03-17T06:43:44.466Z,6.97
2019-03-17T06:46:13.352Z,8.98
2019-03-17T06:48:43.268Z,28.20
2019-03-17T06:51:12.071Z,16.67
2019-03-17T06:53:40.945Z,15.13
2019-03-17T06:56:09.939Z,7.03
2019-03-17T06:58:38.837Z,10.40
2019-03-17T07:01:07.749Z,7.83
2019-03-17T07:03:39.110Z,7.45
2019-03-17T07:06:08.062Z,7.17
2019-03-17T07:08:40.619Z,6.40
2019-03-17T07:11:13.226Z,9.93
2019-03-17T07:13:42.103Z,9.58
2019-03-17T07:16:14.673Z,14.90
2019-03-17T07:18:44.530Z,33.60
2019-03-17T07:21:16.977Z,17.55
2019-03-17T07:23:45.857Z,22.50
2019-03-17T07:26:20.883Z,14.18
2019-03-17T07:28:49.774Z,19.80
2019-03-17T07:31:25.728Z,15.72
2019-03-17T07:33:54.620Z,58.50
2019-03-17T07:36:23.509Z,29.67
2019-03-17T07:39:11.146Z,11.15
2019-03-17T07:41:29.892Z,13.75
2019-03-17T07:44:02.570Z,8.95
2019-03-17T07:46:31.459Z,32.00
2019-03-17T07:49:02.916Z,18.05
2019-03-17T07:51:33.823Z,29.98
2019-03-17T07:54:11.976Z,13.85
2019-03-17T07:56:45.582Z,22.75
2019-03-17T08:01:42.620Z,12.58
2019-03-17T08:04:16.451Z,36.98
2019-03-17T08:06:45.416Z,31.20
2019-03-17T08:09:15.330Z,10.70
2019-03-17T08:11:48.315Z,11.55
2019-03-17T08:14:17.206Z,13.62
2019-03-17T08:16:47.944Z,10.10
2019-03-17T08:19:19.898Z,10.98
2019-03-17T08:21:48.791Z,6.62
2019-03-17T08:24:17.681Z,8.90
2019-03-17T08:26:49.970Z,8.90
2019-03-17T08:29:21.005Z,9.78
2019-03-17T08:31:49.879Z,8.18
2019-03-17T08:34:18.771Z,10.88
2019-03-17T08:36:47.762Z,11.03
2019-03-17T08:39:21.260Z,10.70
2019-03-17T08:41:56.574Z,8.03
2019-03-17T08:44:35.527Z,9.73
2019-03-17T08:47:08.104Z,9.88
2019-03-17T08:49:36.902Z,8.68
2019-03-17T08:52:07.728Z,9.38
2019-03-17T08:54:37.641Z,10.43
2019-03-17T08:57:09.807Z,8.08
2019-03-17T08:59:38.699Z,9.13
2019-03-17T09:02:09.092Z,8.38
2019-03-17T09:04:39.048Z,9.20
2019-03-17T09:07:08.541Z,7.55
2019-03-17T09:09:37.433Z,15.53
2019-03-17T09:12:06.442Z,15.00
2019-03-17T09:14:43.404Z,14.53
2019-03-17T09:17:14.720Z,10.18
2019-03-17T09:19:47.027Z,15.58
2019-03-17T09:22:16.842Z,20.80
2019-03-17T09:24:45.721Z,20.45
2019-03-17T09:27:17.113Z,17.35
2019-03-17T09:29:56.211Z,14.65
2019-03-17T09:32:29.433Z,15.08
2019-03-17T09:35:03.593Z,12.88
2019-03-17T09:37:36.130Z,11.38
2019-03-17T09:40:08.150Z,12.13
2019-03-17T09:42:38.056Z,11.88
2019-03-17T09:45:09.409Z,13.78
2019-03-17T09:47:40.966Z,11.60
2019-03-17T09:50:18.049Z,9.98
2019-03-17T09:52:49.121Z,12.40
2019-03-17T09:55:18.071Z,14.28
2019-03-17T09:57:52.288Z,9.85
2019-03-17T10:00:22.405Z,9.53
2019-03-17T10:02:53.759Z,9.10
2019-03-17T10:05:25.201Z,12.07
2019-03-17T10:07:56.651Z,9.35
2019-03-17T10:10:25.645Z,8.40
2019-03-17T10:12:56.688Z,12.98
2019-03-17T10:15:27.827Z,11.25
2019-03-17T10:17:56.628Z,12.63
2019-03-17T10:20:26.530Z,12.47
2019-03-17T10:22:55.424Z,21.73
2019-03-17T10:25:24.411Z,20.48
2019-03-17T10:27:55.965Z,26.40
2019-03-17T10:30:30.844Z,17.17
2019-03-17T10:32:59.786Z,14.55
2019-03-17T10:35:32.298Z,12.15
2019-03-17T10:38:01.148Z,15.15
2019-03-17T10:40:30.140Z,15.50
2019-03-17T10:42:59.035Z,26.40
2019-03-17T10:45:31.812Z,17.82
2019-03-17T10:48:00.803Z,16.10
2019-03-17T10:50:33.621Z,21.57
2019-03-17T10:53:07.606Z,29.13
2019-03-17T10:55:36.486Z,23.95
2019-03-17T10:58:07.541Z,21.30
2019-03-17T11:00:36.416Z,15.48
2019-03-17T11:03:06.251Z,25.55
2019-03-17T11:05:41.569Z,28.60
2019-03-17T11:08:11.483Z,52.15
2019-03-17T11:10:43.649Z,24.20
2019-03-17T11:13:13.494Z,31.50
2019-03-17T11:15:46.037Z,28.87
2019-03-17T11:18:14.929Z,26.73
2019-03-17T11:20:44.840Z,24.95
2019-03-17T11:23:13.836Z,19.98
2019-03-17T11:25:42.725Z,43.40
2019-03-17T11:28:11.716Z,28.35
2019-03-17T11:30:40.605Z,21.95
2019-03-17T11:33:09.495Z,26.00
2019-03-17T11:35:40.886Z,27.02
2019-03-17T11:38:09.841Z,27.55
2019-03-17T11:40:38.827Z,57.53
2019-03-17T11:43:08.985Z,35.80
2019-03-17T11:45:37.939Z,45.73
2019-03-17T11:48:06.832Z,48.40
2019-03-17T11:50:35.720Z,31.73
2019-03-17T11:53:04.712Z,23.83
2019-03-17T11:55:33.599Z,37.53
2019-03-17T11:58:07.087Z,37.98
2019-03-17T12:00:39.996Z,34.03
2019-03-17T12:03:12.355Z,40.92
2019-03-17T12:05:41.247Z,53.65
2019-03-17T12:08:10.137Z,22.13
2019-03-17T12:10:39.230Z,27.32
2019-03-17T12:13:11.811Z,26.12
2019-03-17T12:15:40.796Z,24.10
2019-03-17T12:18:10.716Z,29.77
2019-03-17T12:20:39.705Z,23.52
2019-03-17T12:23:16.097Z,23.77
2019-03-17T12:25:50.456Z,25.50
2019-03-17T12:28:19.485Z,32.35
2019-03-17T12:30:56.765Z,28.10
2019-03-17T12:33:25.657Z,31.17
2019-03-17T12:35:58.745Z,28.27
2019-03-17T12:38:27.633Z,28.60
2019-03-17T12:41:00.517Z,25.30
2019-03-17T12:43:32.075Z,20.48
2019-03-17T12:46:00.971Z,18.70
2019-03-17T12:48:30.977Z,30.57
2019-03-17T12:51:02.358Z,29.90
2019-03-17T12:53:34.593Z,32.80
2019-03-17T12:56:03.483Z,25.72
2019-03-17T12:58:32.373Z,27.13
2019-03-17T13:01:01.263Z,23.40
2019-03-17T13:03:31.282Z,24.02
2019-03-17T13:06:00.273Z,21.93
2019-03-17T13:08:29.161Z,18.37
2019-03-17T13:11:00.101Z,22.82
2019-03-17T13:13:28.990Z,27.48
2019-03-17T13:16:00.446Z,24.70
2019-03-17T13:18:31.657Z,22.90
2019-03-17T13:21:00.403Z,33.05
2019-03-17T13:23:31.205Z,24.35
2019-03-17T13:26:02.655Z,27.75
2019-03-17T13:28:31.648Z,24.43
2019-03-17T13:31:04.633Z,31.33
2019-03-17T13:33:33.522Z,31.50
2019-03-17T13:36:02.513Z,39.15
2019-03-17T13:38:31.405Z,25.37
2019-03-17T13:41:02.956Z,31.60
2019-03-17T13:43:31.847Z,41.98
2019-03-17T13:46:00.838Z,22.13
2019-03-17T13:48:29.730Z,39.48
2019-03-17T13:50:58.619Z,28.77
2019-03-17T13:53:35.290Z,23.12
2019-03-17T13:56:04.180Z,31.17
2019-03-17T13:58:33.074Z,31.82
2019-03-17T14:01:01.963Z,30.12
2019-03-17T14:03:30.852Z,28.70
2019-03-17T14:06:02.305Z,28.60
2019-03-17T14:08:35.651Z,22.65
2019-03-17T14:11:08.586Z,28.40
2019-03-17T14:13:45.108Z,41.08
2019-03-17T14:16:17.733Z,29.85
2019-03-17T14:18:46.616Z,26.30
2019-03-17T14:21:15.514Z,28.70
2019-03-17T14:23:44.500Z,26.73
2019-03-17T14:26:13.390Z,37.85
2019-03-17T14:28:42.279Z,27.82
2019-03-17T14:31:11.167Z,28.67
2019-03-17T14:33:40.158Z,27.80
2019-03-17T14:36:10.078Z,31.50
2019-03-17T14:38:38.965Z,34.05
2019-03-17T14:41:07.855Z,41.02
2019-03-17T14:43:43.811Z,37.85
2019-03-17T14:46:12.551Z,35.92
2019-03-17T14:48:47.636Z,30.02
2019-03-17T14:51:16.526Z,28.17
2019-03-17T14:53:45.410Z,31.57
2019-03-17T14:56:14.307Z,35.35
2019-03-17T14:58:44.187Z,34.60
2019-03-17T15:01:13.205Z,38.00
2019-03-17T15:03:42.123Z,39.23
2019-03-17T15:06:10.904Z,40.23
2019-03-17T15:08:42.537Z,45.92
2019-03-17T15:11:14.706Z,44.93
2019-03-17T15:13:43.699Z,40.75
2019-03-17T15:16:17.504Z,41.35
2019-03-17T15:18:46.399Z,40.00
2019-03-17T15:21:15.393Z,47.85
2019-03-17T15:23:44.272Z,45.65
2019-03-17T15:26:13.021Z,44.95
2019-03-17T15:28:41.952Z,39.10
2019-03-17T15:31:14.941Z,44.98
2019-03-17T15:33:43.831Z,40.40
2019-03-17T15:36:12.716Z,40.25
2019-03-17T15:38:41.608Z,44.25
2019-03-17T15:41:18.489Z,44.45
2019-03-17T15:43:44.098Z,47.78
2019-03-17T15:46:12.987Z,50.60
2019-03-17T15:48:42.097Z,51.68
2019-03-17T15:51:20.281Z,42.00
2019-03-17T15:53:41.499Z,49.67
2019-03-17T15:56:10.391Z,47.10
2019-03-17T15:58:39.278Z,46.33
2019-03-17T16:01:11.960Z,48.23
2019-03-17T16:03:43.511Z,48.78
2019-03-17T16:06:12.401Z,56.58
2019-03-17T16:08:41.393Z,42.33
2019-03-17T16:11:10.285Z,49.38
2019-03-17T16:13:39.278Z,52.67
2019-03-17T16:16:08.167Z,48.45
2019-03-17T16:18:37.063Z,49.95
2019-03-17T16:21:09.085Z,52.58
2019-03-17T16:23:38.158Z,57.78
2019-03-17T16:26:12.241Z,50.90
2019-03-17T16:28:40.988Z,46.20
2019-03-17T16:31:11.212Z,50.55
2019-03-17T16:33:40.432Z,49.25
2019-03-17T16:36:09.424Z,49.18
2019-03-17T16:38:42.046Z,47.03
2019-03-17T16:41:12.142Z,50.45
2019-03-17T16:43:41.246Z,54.05
2019-03-17T16:46:09.997Z,55.95
2019-03-17T16:48:42.849Z,51.18
2019-03-17T16:51:11.771Z,57.98
2019-03-17T16:53:40.663Z,60.33
2019-03-17T16:56:09.555Z,56.02
2019-03-17T16:58:40.874Z,61.42
2019-03-17T17:01:09.791Z,48.83
2019-03-17T17:03:38.685Z,56.85
2019-03-17T17:06:07.675Z,63.30
2019-03-17T17:08:40.460Z,56.90
2019-03-17T17:11:10.202Z,60.13
2019-03-17T17:13:39.157Z,53.10
2019-03-17T17:16:08.043Z,56.42
2019-03-17T17:18:36.934Z,60.95
2019-03-17T17:21:13.645Z,59.23
2019-03-17T17:23:42.600Z,86.20
2019-03-17T17:26:11.487Z,70.67
2019-03-17T17:28:40.377Z,59.88
2019-03-17T17:31:09.266Z,63.95
2019-03-17T17:33:38.100Z,59.25
2019-03-17T17:36:07.048Z,68.02
2019-03-17T17:38:39.683Z,82.85
2019-03-17T17:41:11.163Z,89.20
2019-03-17T17:43:44.650Z,83.85
2019-03-17T17:46:13.565Z,79.75
2019-03-17T17:48:42.462Z,75.42
2019-03-17T17:51:11.446Z,136.18
2019-03-17T17:53:40.250Z,73.90
2019-03-17T17:56:10.354Z,131.75
2019-03-17T17:58:40.370Z,67.87
2019-03-17T18:01:10.387Z,292.85
2019-03-17T18:03:51.139Z,57.55
2019-03-17T18:06:14.464Z,58.75
2019-03-17T18:08:48.499Z,53.17
2019-03-17T18:11:21.460Z,55.98
2019-03-17T18:13:54.489Z,53.98
2019-03-17T18:16:26.085Z,53.17
2019-03-17T18:18:55.631Z,61.68
2019-03-17T18:21:29.785Z,85.72
2019-03-17T18:23:58.760Z,138.07
2019-03-17T18:26:30.898Z,57.80
2019-03-17T18:28:59.814Z,107.52
2019-03-17T18:31:32.343Z,62.35
2019-03-17T18:34:02.203Z,91.40
2019-03-17T18:36:31.219Z,58.10
2019-03-17T18:39:01.464Z,56.42
2019-03-17T18:41:30.480Z,54.38
2019-03-17T18:44:00.595Z,73.78
2019-03-17T18:46:31.264Z,54.95
2019-03-17T18:49:01.816Z,52.95
2019-03-17T18:51:30.614Z,48.15
2019-03-17T18:53:59.671Z,48.15
2019-03-17T18:56:30.657Z,46.85
2019-03-17T18:58:59.923Z,47.98
2019-03-17T19:01:29.039Z,45.73
2019-03-17T19:03:59.255Z,52.35
2019-03-17T19:06:29.000Z,56.60
2019-03-17T19:08:59.463Z,52.03
2019-03-17T19:11:29.480Z,50.28
2019-03-17T19:14:01.112Z,53.60
2019-03-17T19:16:34.097Z,48.23
2019-03-17T19:19:07.720Z,51.08
2019-03-17T19:21:40.882Z,51.88
2019-03-17T19:24:09.800Z,49.93
2019-03-17T19:26:38.690Z,105.70
2019-03-17T19:29:07.685Z,164.90
2019-03-17T19:31:36.675Z,122.55
2019-03-17T19:34:10.204Z,70.45
2019-03-17T19:36:38.766Z,217.15
2019-03-17T19:39:08.086Z,57.27
2019-03-17T19:41:37.485Z,60.67
2019-03-17T19:44:11.264Z,56.37
2019-03-17T19:46:40.812Z,54.03
2019-03-17T19:49:11.147Z,58.58
2019-03-17T19:51:41.040Z,82.95
2019-03-17T19:54:10.100Z,46.70
2019-03-17T19:56:39.094Z,64.77
2019-03-17T19:59:08.188Z,47.08
2019-03-17T20:01:38.076Z,269.60
2019-03-17T20:04:07.263Z,48.52
2019-03-17T20:06:39.908Z,58.68
2019-03-17T20:09:09.318Z,64.30
2019-03-17T20:11:38.620Z,45.20
2019-03-17T20:14:10.138Z,46.95
2019-03-17T20:16:39.182Z,43.38
2019-03-17T20:19:09.566Z,44.48
2019-03-17T20:21:38.964Z,42.15
2019-03-17T20:24:08.009Z,69.58
2019-03-17T20:26:36.864Z,46.02
2019-03-17T20:29:07.211Z,72.03
2019-03-17T20:31:37.552Z,56.45
2019-03-17T20:34:08.864Z,80.92
2019-03-17T20:36:38.252Z,46.53
2019-03-17T20:39:07.581Z,43.95
2019-03-17T20:41:36.630Z,42.70
2019-03-17T20:44:06.233Z,40.40
2019-03-17T20:46:35.328Z,41.50
2019-03-17T20:49:11.470Z,40.50
2019-03-17T20:51:43.625Z,41.55
2019-03-17T20:54:13.091Z,40.35
2019-03-17T20:56:43.017Z,40.88
2019-03-17T20:59:13.442Z,41.90
2019-03-17T21:01:42.206Z,43.65
2019-03-17T21:04:11.360Z,49.40
2019-03-17T21:06:40.478Z,46.25
2019-03-17T21:09:12.908Z,41.65
2019-03-17T21:11:46.011Z,41.88
2019-03-17T21:14:16.191Z,39.65
2019-03-17T21:16:46.570Z,47.88
2019-03-17T21:19:25.767Z,46.80
2019-03-17T21:21:54.170Z,45.70
2019-03-17T21:24:24.548Z,47.97
2019-03-17T21:26:56.817Z,45.55
2019-03-17T21:29:28.287Z,44.60
2019-03-17T21:32:01.084Z,48.38
2019-03-17T21:34:32.004Z,50.88
2019-03-17T21:37:05.007Z,47.50
2019-03-17T21:39:36.585Z,53.30
2019-03-17T21:42:06.340Z,43.45
2019-03-17T21:44:39.220Z,46.00
2019-03-17T21:47:12.502Z,49.57
2019-03-17T21:49:42.074Z,57.30
2019-03-17T21:52:16.625Z,49.53
2019-03-17T21:54:49.015Z,49.25
2019-03-17T21:57:24.995Z,50.70
2019-03-17T21:59:55.128Z,51.65
2019-03-17T22:02:25.210Z,50.03
2019-03-17T22:04:58.351Z,55.92
2019-03-17T22:07:29.083Z,52.35
2019-03-17T22:10:01.637Z,49.58
2019-03-17T22:12:35.038Z,49.15
2019-03-17T22:15:09.823Z,51.28
2019-03-17T22:17:41.770Z,52.80
2019-03-17T22:20:17.462Z,50.28
2019-03-17T22:22:55.028Z,50.48
2019-03-17T22:25:31.785Z,52.00
2019-03-17T22:28:10.405Z,53.35
2019-03-17T22:30:46.360Z,51.05
2019-03-17T22:33:17.840Z,47.00
2019-03-17T22:35:51.630Z,50.95
2019-03-17T22:41:02.543Z,38.38
2019-03-17T22:43:38.291Z,41.55
2019-03-17T22:46:07.883Z,36.65
2019-03-17T22:48:42.404Z,29.67
2019-03-17T22:51:13.997Z,26.60
2019-03-17T22:53:47.484Z,20.80
2019-03-17T22:56:26.555Z,19.90
2019-03-17T22:58:55.575Z,19.07
2019-03-17T23:01:26.133Z,15.28
2019-03-17T23:03:55.599Z,14.58
2019-03-17T23:06:28.632Z,12.15
2019-03-17T23:09:00.529Z,7.08
2019-03-17T23:11:29.955Z,6.35
2019-03-17T23:14:02.126Z,6.08
2019-03-17T23:16:36.358Z,6.83
2019-03-17T23:19:05.674Z,5.40
2019-03-17T23:21:35.221Z,4.85
2019-03-17T23:24:04.867Z,7.22
2019-03-17T23:26:33.891Z,4.85
2019-03-17T23:29:03.094Z,3.58
2019-03-17T23:31:36.410Z,6.05
2019-03-17T23:34:05.770Z,4.83
2019-03-17T23:36:35.099Z,4.83
2019-03-17T23:39:07.129Z,5.55
2019-03-17T23:41:36.798Z,6.47
2019-03-17T23:44:10.051Z,5.50
2019-03-17T23:46:39.314Z,5.28
2019-03-17T23:49:08.678Z,8.80
2019-03-17T23:51:39.210Z,5.70
2019-03-17T23:54:08.758Z,10.32
2019-03-17T23:56:38.437Z,7.37
2019-03-17T23:59:07.863Z,6.60
